Keswick, California
Current Conditions -  °F | °C
As of 4:53 AM on Tuesday 21 Oct 2014 (Local Time) from KRDD Reporting Station
Clear Clear  
Wind Chill: 45°   Ceiling: Unl
Heat Index: 47°   Visibility: 10mi
Dew Point: 46°   Wind: 5mph
Humidity: 97%   Direction: 330°NNW
Pressure: 30.09"   Gusts: NA
Location:  40.5977°N, 122.467°W
Report Text: KRDD 211153Z AUTO 33004KT 10SM CLR 08/08 A3009 RMK AO2 SLP188 70022 T00830078 10117 20078 52018
Loading
Personal Weather Stations






























Interactive Weather Map
Tropical Storm Tracking
New forecast layout! Learn more

10-Day Weather Forecast

Advertisements
Track Severe Weather on mobile